Latest Weather Observations for Warrnambool

IDV60801

Issued at 9:05 am EST Wednesday 17 September 2014 (issued every 30 minutes, with the page automatically refreshed every 10 minutes)

About weather observations | Map of weather stations | Latest weather observations for VIC | Other Formats
Station Details ID: 090186 Name: WARRNAMBOOL AIRPORT NDB Lat: -38.29 Lon: 142.45 Height: 70.8 m
Data from the previous 72 hours. | See also: Recent months at Warrnambool
Date/Time
EST
Temp
°C
App
Temp
°C
Dew
Point
Rel
Hum
%
Delta-T
°C
Wind Press
QNH
hPa
Press
MSL
hPa
Rain
since 9 am
mm
Dir
 
Spd
km/h
Gust
km/h
Spd
kts
Gust
kts
17/09:00am 11.2 3.3 7.7 79 1.7 WSW 39 48 21 26 1015.3 1015.3 1.2
17/08:30am 11.2 4.4 7.9 80 1.6 WSW 33 44 18 24 1015.0 1015.0 1.0
17/08:00am 9.2 4.7 8.6 96 0.3 W 22 30 12 16 1014.8 1014.8 1.0
17/07:30am 8.8 5.7 8.7 99 0.0 WNW 15 22 8 12 1014.4 1014.4 1.0
17/07:00am 7.9 3.8 7.8 99 0.0 WNW 19 24 10 13 1014.1 1014.1 1.0
17/06:30am 7.2 3.3 7.1 99 0.0 WNW 17 24 9 13 1013.9 1013.9 1.0
17/06:00am 7.2 3.3 7.1 99 0.0 NW 17 24 9 13 1013.8 1013.8 1.0
17/05:30am 7.7 3.0 7.6 99 0.0 WNW 22 30 12 16 1013.7 1013.7 1.0
17/05:00am 7.3 3.4 6.9 97 0.2 NW 17 24 9 13 1013.6 1013.6 0.8
17/04:30am 8.0 4.2 7.7 98 0.1 WNW 17 24 9 13 1013.4 1013.4 0.8
17/04:00am 7.3 4.4 6.7 96 0.3 WNW 11 17 6 9 1013.1 1013.1 0.6
17/03:30am 8.1 4.3 7.7 97 0.2 WNW 17 20 9 11 1013.2 1013.2 0.6
17/03:00am 8.4 4.7 8.1 98 0.1 WNW 17 24 9 13 1013.3 1013.3 0.6
17/02:30am 8.8 4.9 8.7 99 0.0 WNW 19 30 10 16 1013.2 1013.2 0.6
17/02:00am 9.3 5.5 9.2 99 0.0 W 19 26 10 14 1013.3 1013.3 0.6
17/01:30am 9.8 5.2 9.7 99 0.1 W 24 32 13 17 1013.2 1013.2 0.6
17/01:00am 10.1 4.4 9.8 98 0.2 W 30 43 16 23 1013.2 1013.2 0.2
17/12:30am 9.6 4.8 9.0 96 0.3 NW 24 30 13 16 1013.1 1013.1 0.0
17/12:00am 8.2 4.4 7.4 95 0.4 NW 17 19 9 10 1013.2 1013.2 0.0
 
Date/Time
EST
Temp
°C
App
Temp
°C
Dew
Point
Rel
Hum
%
Delta-T
°C
Wind Press
QNH
hPa
Press
MSL
hPa
Rain
since 9 am
mm
Dir
 
Spd
km/h
Gust
km/h
Spd
kts
Gust
kts
16/11:30pm 8.6 5.6 7.7 94 0.4 NW 13 17 7 9 1013.5 1013.5 0.0
16/11:00pm 9.6 6.5 8.7 94 0.4 NW 15 19 8 10 1013.7 1013.7 0.0
16/10:30pm 9.4 5.9 8.8 96 0.3 NW 17 22 9 12 1013.8 1013.8 0.0
16/10:00pm 8.7 5.4 8.1 96 0.3 NW 15 20 8 11 1013.9 1013.9 0.0
16/09:30pm 8.1 5.1 7.7 97 0.2 NW 13 17 7 9 1014.0 1014.0 0.0
16/09:00pm 7.0 4.1 6.3 95 0.3 NNW 11 13 6 7 1014.0 1014.0 0.0
16/08:30pm 7.7 4.4 6.6 93 0.5 NW 13 15 7 8 1014.0 1014.0 0.0
16/08:00pm 8.9 5.9 7.5 91 0.7 WNW 13 17 7 9 1014.1 1014.1 0.0
16/07:30pm 9.3 5.9 7.7 90 0.8 W 15 17 8 9 1013.8 1013.8 0.0
16/07:00pm 9.8 6.8 7.7 87 1.0 W 13 15 7 8 1013.6 1013.6 0.0
16/06:30pm 11.4 8.3 9.0 85 1.2 W 15 20 8 11 1013.5 1013.5 0.0
16/06:00pm 11.8 7.9 9.4 85 1.2 W 20 26 11 14 1013.4 1013.4 0.0
16/05:30pm 12.4 8.7 9.6 83 1.4 W 19 24 10 13 1013.2 1013.2 0.0
16/05:00pm 12.8 8.6 9.8 82 1.5 W 22 28 12 15 1013.0 1013.0 0.0
16/04:30pm 13.1 8.4 9.2 77 2.0 SW 24 30 13 16 1012.9 1012.9 0.0
16/04:00pm 13.2 9.2 8.9 75 2.2 SW 20 28 11 15 1012.9 1012.9 0.0
16/03:30pm 13.1 8.4 9.2 77 2.0 SW 24 35 13 19 1012.9 1012.9 0.0
16/03:00pm 13.0 7.8 8.7 75 2.2 SW 26 35 14 19 1012.9 1012.9 0.0
16/02:30pm 14.3 8.6 9.7 74 2.4 WSW 30 37 16 20 1012.9 1012.9 0.0
16/02:00pm 13.9 7.7 9.5 75 2.3 SW 32 41 17 22 1012.9 1012.9 0.0
16/01:30pm 13.1 6.6 8.2 72 2.4 SW 32 41 17 22 1012.7 1012.8 0.0
16/01:00pm 13.6 7.2 8.4 71 2.6 SW 32 41 17 22 1013.0 1013.0 0.0
16/12:30pm 13.0 6.8 7.9 71 2.5 SW 30 39 16 21 1013.1 1013.1 0.0
16/12:00pm 12.8 7.1 8.3 74 2.2 SW 28 35 15 19 1013.4 1013.4 0.0
16/11:30am 12.5 6.5 8.6 77 1.9 SW 30 37 16 20 1013.5 1013.5 0.0
16/11:00am 11.7 7.4 9.3 85 1.2 SW 22 30 12 16 1013.7 1013.7 0.0
16/10:30am 12.8 7.4 9.6 81 1.6 SW 28 35 15 19 1013.7 1013.7 0.0
16/10:00am 12.2 6.7 9.0 81 1.6 SW 28 33 15 18 1013.9 1013.9 0.0
16/09:30am 12.0 5.7 9.0 82 1.5 SW 32 41 17 22 1013.7 1013.7 0.0
16/09:00am 11.7 5.9 9.6 87 1.1 SW 30 39 16 21 1013.6 1013.6 1.2
16/08:30am 11.7 5.7 10.1 90 0.8 SW 32 41 17 22 1013.4 1013.4 1.2
16/08:00am 11.3 5.8 10.5 95 0.4 SW 30 37 16 20 1013.0 1013.0 1.2
16/07:30am 11.3 6.3 11.1 99 0.1 SW 28 35 15 19 1012.6 1012.7 1.2
16/07:00am 11.1 5.3 10.9 99 0.1 SSW 32 43 17 23 1012.3 1012.4 0.8
16/06:30am 11.7 5.9 11.5 99 0.1 SSW 33 44 18 24 1012.0 1012.1 0.8
16/06:00am 11.7 6.5 11.5 99 0.1 SSW 30 39 16 21 1011.6 1011.7 0.8
16/05:30am 11.9 6.7 11.7 99 0.1 SSW 30 37 16 20 1011.2 1011.3 0.8
16/05:00am 11.9 7.9 11.9 100 0.0 SSW 24 30 13 16 1011.0 1011.1 0.8
16/04:30am 11.9 8.7 11.9 100 0.0 SSW 20 26 11 14 1010.8 1010.9 0.8
16/04:00am 11.9 7.6 11.9 100 0.0 SSW 26 35 14 19 1010.6 1010.7 0.8
16/03:30am 11.9 7.1 11.7 99 0.1 SSW 28 37 15 20 1010.5 1010.6 0.6
16/03:00am 12.2 8.6 12.0 99 0.1 SSW 22 32 12 17 1010.5 1010.6 0.2
16/02:30am 12.4 9.3 12.2 99 0.1 S 20 26 11 14 1010.5 1010.6 0.2
16/02:00am 12.4 9.3 12.2 99 0.1 S 20 26 11 14 1010.7 1010.8 0.2
16/01:30am 12.4 8.9 12.2 99 0.1 S 22 30 12 16 1010.7 1010.8 0.2
16/01:00am 12.4 9.3 12.2 99 0.1 S 20 28 11 15 1010.8 1010.9 0.2
16/12:30am 12.1 9.5 11.9 99 0.1 S 17 22 9 12 1010.8 1010.9 0.2
16/12:00am 11.7 9.7 11.4 98 0.2 SSW 13 17 7 9 1011.0 1011.1 0.2
 
Date/Time
EST
Temp
°C
App
Temp
°C
Dew
Point
Rel
Hum
%
Delta-T
°C
Wind Press
QNH
hPa
Press
MSL
hPa
Rain
since 9 am
mm
Dir
 
Spd
km/h
Gust
km/h
Spd
kts
Gust
kts
15/11:30pm 11.6 9.1 11.1 97 0.3 SSE 15 20 8 11 1010.9 1011.0 0.2
15/11:00pm 11.7 8.5 11.4 98 0.2 S 19 24 10 13 1011.2 1011.3 0.2
15/10:30pm 11.6 8.2 11.4 99 0.1 SSE 20 28 11 15 1011.0 1011.1 0.2
15/10:00pm 11.3 8.1 11.1 99 0.1 S 19 24 10 13 1011.1 1011.2 0.2
15/09:30pm 11.2 8.7 11.0 99 0.1 S 15 20 8 11 1011.2 1011.3 0.2
15/09:00pm 10.7 8.7 10.2 97 0.3 SSE 11 13 6 7 1011.2 1011.3 0.2
15/08:30pm 10.8 8.1 10.3 97 0.3 S 15 19 8 10 1011.3 1011.4 0.2
15/08:00pm 11.0 9.0 10.2 95 0.4 SE 11 19 6 10 1010.9 1011.0 0.2
15/07:30pm 11.1 8.7 10.2 94 0.5 S 13 17 7 9 1011.2 1011.3 0.2
15/07:00pm 11.4 9.0 10.1 92 0.7 SSE 13 20 7 11 1010.9 1011.0 0.2
15/06:30pm 11.7 8.5 9.9 89 0.9 SE 17 22 9 12 1010.5 1010.6 0.2
15/06:00pm 11.9 8.7 10.1 89 0.9 SSE 17 24 9 13 1010.5 1010.6 0.2
15/05:30pm 12.2 9.1 10.4 89 0.9 SSE 17 24 9 13 1010.3 1010.4 0.2
15/05:00pm 12.5 9.0 10.2 86 1.2 SSE 19 24 10 13 1009.9 1010.0 0.2
15/04:30pm 14.7 11.1 9.9 73 2.5 ESE 19 30 10 16 1009.6 1009.7 0.2
15/04:00pm 15.3 12.3 10.5 73 2.5 E 17 22 9 12 1009.5 1009.6 0.2
15/03:30pm 15.5 12.5 10.7 73 2.6 E 17 24 9 13 1009.4 1009.5 0.2
15/03:00pm 15.8 12.2 10.6 71 2.8 E 20 28 11 15 1009.1 1009.2 0.2
15/02:30pm 16.1 11.7 10.4 69 3.0 E 24 35 13 19 1009.2 1009.3 0.2
15/02:00pm 16.5 12.3 11.2 71 2.9 E 24 35 13 19 1009.3 1009.4 0.0
15/01:30pm 15.8 12.3 11.0 73 2.6 E 20 30 11 16 1009.8 1009.9 0.0
15/01:00pm 16.5 13.4 12.3 76 2.3 E 20 32 11 17 1010.4 1010.5 0.0
15/12:30pm 15.2 12.4 11.4 78 2.0 ESE 17 26 9 14 1011.0 1011.1 0.0
15/12:00pm 15.5 12.6 12.3 81 1.8 ESE 19 28 10 15 1011.5 1011.6 0.0
15/11:30am 14.7 11.4 11.5 81 1.7 ESE 20 28 11 15 1012.0 1012.1 0.0
15/11:00am 13.9 10.0 10.9 82 1.6 E 22 28 12 15 1012.5 1012.6 0.0
15/10:30am 14.4 10.7 11.4 82 1.6 E 22 32 12 17 1013.1 1013.1 0.0
15/10:00am 13.5 10.1 11.4 87 1.1 E 20 32 11 17 1013.4 1013.4 0.0
15/09:30am 13.2 10.3 12.4 95 0.4 E 19 30 10 16 1014.0 1014.0 0.0
15/09:00am 12.3 9.2 12.1 99 0.1 E 20 33 11 18 1014.3 1014.3 5.2
15/08:30am 11.1 7.8 10.9 99 0.1 E 19 26 10 14 1014.7 1014.7 5.2
15/08:00am 10.7 8.0 10.5 99 0.1 E 15 20 8 11 1014.9 1014.9 5.2
15/07:30am 10.5 8.5 10.3 99 0.1 E 11 17 6 9 1015.3 1015.3 5.2
15/07:00am 9.9 8.6 9.8 99 0.1 ESE 7 11 4 6 1015.0 1015.0 5.2
15/06:30am 10.0 8.3 9.9 99 0.1 ESE 9 15 5 8 1015.0 1015.0 5.2
15/06:00am 10.4 8.8 10.2 99 0.1 SE 9 11 5 6 1015.2 1015.2 5.2
15/05:30am 10.6 8.7 10.4 99 0.1 E 11 20 6 11 1015.0 1015.0 5.2
15/05:00am 10.7 7.7 10.5 99 0.1 ENE 17 26 9 14 1015.0 1015.0 5.2
15/04:30am 10.7 7.7 10.5 99 0.1 ENE 17 26 9 14 1015.0 1015.0 5.0
15/04:00am 10.7 7.7 10.5 99 0.1 ENE 17 28 9 15 1015.0 1015.0 5.0
15/03:30am 10.5 7.0 10.3 99 0.1 ENE 19 20 10 11 1015.4 1015.4 3.8
15/03:00am 10.6 8.7 10.4 99 0.1 ESE 11 17 6 9 1015.9 1015.9 1.8
15/02:30am 10.7 9.2 10.4 98 0.2 NE 9 11 5 6 1017.1 1017.1 0.0
15/02:00am 10.5 8.5 10.2 98 0.2 E 11 19 6 10 1016.4 1016.4 0.0
15/01:30am 10.4 7.6 9.9 97 0.3 E 15 20 8 11 1016.1 1016.1 0.0
15/01:00am 10.5 7.7 9.9 96 0.3 NE 15 20 8 11 1017.6 1017.6 0.0
15/12:30am 10.4 7.9 9.8 96 0.3 ENE 13 22 7 12 1017.7 1017.7 0.0
15/12:00am 10.6 8.2 10.0 96 0.3 ENE 13 19 7 10 1017.6 1017.6 0.0
 
Date/Time
EST
Temp
°C
App
Temp
°C
Dew
Point
Rel
Hum
%
Delta-T
°C
Wind Press
QNH
hPa
Press
MSL
hPa
Rain
since 9 am
mm
Dir
 
Spd
km/h
Gust
km/h
Spd
kts
Gust
kts
14/11:30pm 10.8 8.8 10.2 96 0.3 ENE 11 17 6 9 1018.3 1018.3 0.0
14/11:00pm 10.9 8.6 10.4 97 0.3 E 13 19 7 10 1018.9 1018.9 0.0
14/10:30pm 11.1 8.5 10.8 98 0.2 E 15 20 8 11 1019.1 1019.1 0.0
14/10:00pm 10.7 9.5 10.2 97 0.3 ESE 7 11 4 6 1019.6 1019.6 0.0
14/09:30pm 10.7 9.7 10.2 97 0.3 E 6 7 3 4 1019.9 1020.0 0.0
14/09:00pm 10.7 9.7 10.2 97 0.3 ESE 6 9 3 5 1019.7 1019.7 0.0
14/08:30pm 10.7 9.5 10.2 97 0.3 ESE 7 9 4 5 1019.6 1019.6 0.0
14/08:00pm 10.7 9.4 10.1 96 0.3 ESE 7 13 4 7 1019.3 1019.3 0.0
14/07:30pm 10.5 8.0 9.7 95 0.4 SSE 13 17 7 9 1019.0 1019.0 0.0
14/07:00pm 11.0 8.2 10.1 94 0.5 SSE 15 19 8 10 1018.8 1018.8 0.0
14/06:30pm 10.8 7.9 9.6 92 0.6 SSE 15 19 8 10 1018.9 1018.9 0.0
14/06:00pm 11.6 8.8 9.9 89 0.9 SSE 15 19 8 10 1018.9 1018.9 0.0
14/05:30pm 12.3 9.1 10.0 86 1.2 SSE 17 22 9 12 1018.9 1018.9 0.0
14/05:00pm 13.1 10.0 10.3 83 1.5 SSE 17 20 9 11 1018.8 1018.8 0.0
14/04:30pm 13.4 9.7 9.3 76 2.1 SSE 19 26 10 14 1018.8 1018.8 0.0
14/04:00pm 14.1 10.2 9.5 74 2.4 S 20 28 11 15 1018.7 1018.7 0.0
14/03:30pm 14.7 10.4 9.3 70 2.8 SSE 22 28 12 15 1018.9 1018.9 0.0
14/03:00pm 14.8 10.6 8.3 65 3.3 SSE 20 28 11 15 1019.1 1019.1 0.0
14/02:30pm 15.6 12.1 10.2 70 2.8 S 19 24 10 13 1019.1 1019.1 0.0
14/02:00pm 15.4 12.4 10.6 73 2.5 S 17 22 9 12 1019.1 1019.1 0.0
14/01:30pm 15.1 12.0 10.3 73 2.5 S 17 20 9 11 1019.3 1019.3 0.0
14/01:00pm 15.5 12.6 11.1 75 2.4 SSE 17 24 9 13 1019.6 1019.6 0.0
14/12:30pm 15.9 13.9 10.0 68 3.1 SE 11 20 6 11 1020.1 1020.2 0.0
14/12:00pm 15.6 13.8 9.3 66 3.2 SSE 9 15 5 8 1020.6 1020.7 0.0
14/11:30am 15.4 13.6 9.5 68 3.1 SE 9 17 5 9 1021.0 1021.1 0.0
14/11:00am 15.0 12.7 9.1 68 3.0 E 11 17 6 9 1021.2 1021.3 0.0
14/10:30am 14.1 12.4 8.5 69 2.8 ESE 7 15 4 8 1021.4 1021.5 0.0
14/10:00am 13.7 12.4 10.1 79 1.9 E 7 13 4 7 1021.5 1021.6 0.0
14/09:30am 12.0 11.4 11.7 98 0.2 NE 6 9 3 5 1021.8 1021.9 0.0

Other Formats:

Comma delimited format used in spreadsheet applications
http://www.bom.gov.au/fwo/IDV60801/IDV60801.94837.axf

JavaScript Object Notation format (JSON) in row-major order
http://www.bom.gov.au/fwo/IDV60801/IDV60801.94837.json